Time;durP1;ratioP1;P1;durP2;ratioP2;P2;SDS_P1;SDS_P2;PMS_P1;PMS_P2;Temp;Humidity;BMP_temperature;BMP_pressure;BME280_temperature;BME280_humidity;BME280_pressure;Samples;Min_cycle;Max_cycle;Signal;HPM_P1;HPM_P2
2022/02/04 14:02:56;;;;;;;11.35;6.53;;;;;;;6.03;70.56;99618.94;4985155;28;105903;-75
2022/02/04 14:05:36;;;;;;;10.63;5.65;;;;;;;6.10;70.89;99615.50;4985193;28;106431;-75
2022/02/04 14:08:10;;;;;;;8.73;5.10;;;;;;;6.19;71.66;99611.09;4983957;28;106116;-75
2022/02/04 14:10:51;;;;;;;11.40;6.05;;;;;;;6.29;71.06;99615.44;4984273;28;106129;-74
2022/02/04 14:13:21;;;;;;;11.38;6.43;;;;;;;6.37;71.16;99611.03;4985547;28;106190;-75
2022/02/04 14:15:55;;;;;;;15.27;7.22;;;;;;;6.42;70.74;99606.09;4981929;28;105881;-74
2022/02/04 14:18:21;;;;;;;13.93;6.60;;;;;;;6.48;71.25;99609.94;4983382;28;107221;-75
2022/02/04 14:20:47;;;;;;;12.02;6.97;;;;;;;6.53;70.69;99599.69;4983325;28;106118;-74
2022/02/04 14:23:13;;;;;;;12.65;5.93;;;;;;;6.61;70.73;99598.91;4984645;28;106448;-74
2022/02/04 14:25:47;;;;;;;11.65;5.15;;;;;;;6.67;70.71;99595.63;4983887;28;106240;-75
2022/02/04 14:28:16;;;;;;;11.02;5.85;;;;;;;6.72;70.18;99579.25;4982331;28;106841;-75
2022/02/04 14:30:42;;;;;;;9.73;5.25;;;;;;;6.71;70.30;99589.03;4982563;28;105942;-75
2022/02/04 14:33:13;;;;;;;7.68;4.53;;;;;;;6.67;69.56;99577.09;4984084;28;106141;-74
2022/02/04 14:52:01;;;;;;;12.32;6.28;;;;;;;6.51;69.71;99572.56;4979663;28;106094;-76
2022/02/04 15:00:16;;;;;;;10.40;6.00;;;;;;;6.50;69.69;99554.22;4980967;28;107123;-76
2022/02/04 15:02:59;;;;;;;9.52;6.07;;;;;;;6.48;69.55;99561.47;4982661;28;106549;-77
2022/02/04 15:05:30;;;;;;;10.38;5.50;;;;;;;6.43;69.05;99554.00;4983360;28;105920;-77
2022/02/04 15:08:01;;;;;;;10.82;5.63;;;;;;;6.40;68.94;99559.63;4983135;28;106144;-74
2022/02/04 15:10:29;;;;;;;;;;;;;;;6.37;69.22;99560.78;4975979;28;105945;-74
2022/02/04 15:12:55;;;;;;;9.77;5.32;;;;;;;6.34;68.69;99555.81;4968622;28;106188;-74
2022/02/04 15:15:21;;;;;;;10.10;5.38;;;;;;;6.31;68.84;99557.94;4970315;28;105977;-74
2022/02/04 15:17:46;;;;;;;9.77;4.80;;;;;;;6.26;69.17;99555.72;4969103;28;106115;-75
2022/02/04 15:20:12;;;;;;;8.35;4.90;;;;;;;6.23;68.92;99554.25;4969464;28;106473;-75
2022/02/04 15:22:37;;;;;;;9.60;5.05;;;;;;;6.19;68.89;99549.44;4969033;28;105989;-74
2022/02/04 15:25:11;;;;;;;10.18;5.93;;;;;;;6.16;69.19;99553.22;4969529;28;106733;-75
2022/02/04 15:27:42;;;;;;;8.50;5.18;;;;;;;6.13;69.19;99552.72;4968663;28;106553;-74
2022/02/04 15:30:09;;;;;;;18.75;7.45;;;;;;;6.11;69.51;99547.59;4969211;28;107220;-75
2022/02/04 15:32:34;;;;;;;14.10;7.28;;;;;;;6.10;69.64;99546.75;4968343;28;106424;-75
2022/02/04 15:35:02;;;;;;;10.10;6.90;;;;;;;6.06;69.59;99545.41;4961654;28;106214;-74
2022/02/04 15:37:30;;;;;;;9.93;6.55;;;;;;;6.05;69.27;99549.00;4955989;28;106368;-74
2022/02/04 15:39:55;;;;;;;11.60;6.68;;;;;;;6.03;69.18;99540.44;4957425;28;106171;-76
2022/02/04 15:42:23;;;;;;;9.48;5.75;;;;;;;5.99;69.24;99530.34;4952713;28;124568;-77
2022/02/04 15:45:51;;;;;;;12.88;7.53;;;;;;;5.98;69.46;99524.19;4957775;28;106302;-73
2022/02/04 15:48:17;;;;;;;16.98;7.07;;;;;;;5.95;69.45;99518.38;4959004;28;106031;-78
2022/02/04 15:50:37;;;;;;;13.48;6.75;;;;;;;5.91;69.41;99523.13;4958951;28;107476;-74
2022/02/04 15:53:21;;;;;;;14.25;7.40;;;;;;;5.88;69.53;99531.41;4958660;28;105927;-74
2022/02/04 15:58:35;;;;;;;19.05;6.95;;;;;;;5.82;69.67;99519.59;4967740;28;105811;-73
2022/02/04 16:06:05;;;;;;;13.98;6.93;;;;;;;5.81;69.72;99511.84;4965701;28;106045;-74
2022/02/04 16:08:30;;;;;;;15.00;6.75;;;;;;;5.78;69.52;99517.44;4960722;28;106335;-73
2022/02/04 16:11:11;;;;;;;11.90;6.40;;;;;;;5.76;69.78;99515.78;4955324;28;106066;-73
2022/02/04 16:13:44;;;;;;;12.50;6.82;;;;;;;5.74;70.00;99506.34;4950374;28;106284;-73
2022/02/04 16:18:58;;;;;;;13.27;6.70;;;;;;;5.68;69.88;99501.69;4947512;28;105868;-73
2022/02/04 16:21:32;;;;;;;13.52;7.68;;;;;;;5.69;69.86;99498.88;4949743;28;106046;-72
2022/02/04 16:24:23;;;;;;;13.25;5.47;;;;;;;5.68;70.20;99483.19;4950108;28;105866;-73
2022/02/04 16:26:58;;;;;;;11.30;6.75;;;;;;;5.69;69.92;99484.84;4955732;28;106230;-73
2022/02/04 16:29:24;;;;;;;7.82;4.90;;;;;;;5.67;69.91;99479.72;4970294;28;106072;-73
2022/02/04 16:31:50;;;;;;;11.63;6.40;;;;;;;5.69;69.71;99487.50;4964831;28;107344;-75
2022/02/04 16:34:16;;;;;;;10.68;6.32;;;;;;;5.69;69.78;99488.31;4968335;28;105962;-73
2022/02/04 16:36:44;;;;;;;8.07;5.50;;;;;;;5.67;69.57;99492.09;4969496;28;106042;-73
2022/02/04 16:39:12;;;;;;;11.52;6.07;;;;;;;5.66;69.57;99499.22;4968442;28;106290;-74
2022/02/04 16:42:11;;;;;;;9.63;5.82;;;;;;;5.66;69.55;99490.44;4953820;28;107001;-74
2022/02/04 16:44:31;;;;;;;10.07;5.95;;;;;;;5.65;69.58;99497.53;4949206;28;106361;-73
2022/02/04 16:47:01;;;;;;;9.15;5.75;;;;;;;5.64;69.31;99495.06;4949735;28;105932;-73
2022/02/04 16:49:30;;;;;;;11.55;6.55;;;;;;;5.59;69.70;99492.88;4948985;28;106319;-74
2022/02/04 16:51:57;;;;;;;11.15;6.50;;;;;;;5.58;69.54;99493.88;4948274;28;106397;-74
2022/02/04 16:54:24;;;;;;;10.40;6.15;;;;;;;5.54;69.52;99490.69;4948014;28;105875;-73
2022/02/04 16:56:54;;;;;;;13.18;5.88;;;;;;;5.53;69.63;99489.03;4949140;28;106056;-73
2022/02/04 16:59:20;;;;;;;10.43;5.10;;;;;;;5.54;69.75;99495.97;4948095;28;106077;-73
2022/02/04 17:01:45;;;;;;;13.40;6.80;;;;;;;5.57;69.79;99492.19;4948072;28;107219;-72
2022/02/04 17:04:12;;;;;;;15.90;6.57;;;;;;;5.56;69.45;99498.47;4947309;28;106038;-73
2022/02/04 17:06:41;;;;;;;10.68;5.55;;;;;;;5.53;69.29;99506.72;4955194;28;106052;-72
2022/02/04 17:11:47;;;;;;;9.48;5.78;;;;;;;5.49;69.57;99510.63;4964338;28;106551;-73
2022/02/04 17:14:12;;;;;;;;;;;;;;;5.48;69.60;99501.91;4967787;28;105950;-73
2022/02/04 17:16:42;;;;;;;11.23;5.68;;;;;;;5.49;69.62;99497.44;4968103;28;106665;-74
2022/02/04 17:19:12;;;;;;;10.00;5.93;;;;;;;5.49;69.72;99498.25;4967005;28;106207;-73
2022/02/04 17:21:40;;;;;;;14.55;7.63;;;;;;;5.47;69.74;99489.66;4967240;28;106060;-73
2022/02/04 17:24:12;;;;;;;15.70;7.65;;;;;;;5.46;69.70;99493.28;4967756;28;106119;-74
2022/02/04 17:26:38;;;;;;;16.55;7.72;;;;;;;5.44;69.69;99495.25;4967811;28;105874;-73
2022/02/04 17:29:03;;;;;;;16.10;8.65;;;;;;;5.43;69.45;99491.78;4967274;28;106010;-73
2022/02/04 17:31:29;;;;;;;19.08;8.50;;;;;;;5.46;69.63;99495.94;4965850;28;121366;-73
2022/02/04 17:33:54;;;;;;;18.35;8.85;;;;;;;5.46;69.86;99497.75;4966709;28;107404;-72
2022/02/04 17:36:19;;;;;;;17.85;9.05;;;;;;;5.45;69.57;99490.81;4968299;28;105921;-72
2022/02/04 17:38:45;;;;;;;15.45;8.68;;;;;;;5.43;69.88;99496.25;4967673;28;106060;-73
2022/02/04 17:41:12;;;;;;;16.60;8.65;;;;;;;5.41;70.04;99501.69;4967330;28;107532;-73
2022/02/04 17:43:40;;;;;;;12.98;8.15;;;;;;;5.41;69.88;99496.41;4966762;28;106151;-73
2022/02/04 17:46:05;;;;;;;15.85;8.13;;;;;;;5.40;69.82;99486.81;4968198;28;106376;-72
2022/02/04 17:51:14;;;;;;;19.48;9.25;;;;;;;5.35;69.88;99483.78;4964473;28;106018;-73
2022/02/04 17:53:52;;;;;;;21.48;10.70;;;;;;;5.32;69.97;99483.28;4967190;28;106024;-72
2022/02/04 17:57:32;;;;;;;21.33;9.80;;;;;;;5.28;70.22;99477.47;4967516;28;105961;-73
2022/02/04 18:07:14;;;;;;;22.77;12.70;;;;;;;5.17;70.33;99472.44;4964313;28;106187;-72
2022/02/04 18:09:43;;;;;;;22.15;12.75;;;;;;;5.13;70.18;99460.53;4966138;28;106174;-73
2022/02/04 18:12:10;;;;;;;18.33;10.27;;;;;;;5.13;70.42;99460.53;4965787;28;106312;-72
2022/02/04 18:14:36;;;;;;;23.10;11.40;;;;;;;5.12;70.48;99450.94;4963910;28;107225;-73
2022/02/04 18:17:03;;;;;;;27.85;13.60;;;;;;;5.11;70.65;99449.28;4966242;28;106621;-73
2022/02/04 18:19:28;;;;;;;30.55;12.85;;;;;;;5.11;70.75;99452.72;4963796;28;106305;-76
2022/02/04 18:21:54;;;;;;;19.88;8.98;;;;;;;5.13;70.37;99449.97;4963821;28;106085;-73
2022/02/04 18:24:20;;;;;;;20.77;11.32;;;;;;;5.14;70.87;99454.25;4965496;28;118256;-74
2022/02/04 18:26:48;;;;;;;22.92;10.90;;;;;;;5.12;70.79;99454.41;4966777;28;106068;-73
2022/02/04 18:29:14;;;;;;;20.27;10.18;;;;;;;5.12;70.37;99451.75;4965988;28;106358;-74
2022/02/04 18:31:39;;;;;;;27.35;11.27;;;;;;;5.11;70.83;99451.91;4965369;28;106013;-76
2022/02/04 18:34:05;;;;;;;20.85;10.30;;;;;;;5.11;70.53;99454.56;4966066;28;106426;-74
2022/02/04 18:36:34;;;;;;;20.75;10.98;;;;;;;5.13;70.95;99456.06;4967099;28;106042;-73
2022/02/04 18:39:28;;;;;;;24.95;10.95;;;;;;;5.13;70.72;99461.34;4965986;28;106233;-74
2022/02/04 18:44:43;;;;;;;21.65;11.20;;;;;;;5.11;70.75;99454.56;4962717;28;106063;-73
2022/02/04 18:47:21;;;;;;;23.08;10.90;;;;;;;5.10;70.66;99445.81;4969771;28;106119;-75
2022/02/04 18:49:52;;;;;;;27.83;10.52;;;;;;;5.09;70.86;99450.25;4969660;28;106011;-72
2022/02/04 18:52:34;;;;;;;18.80;9.85;;;;;;;5.08;70.48;99451.25;4969026;28;105857;-73
2022/02/04 18:57:44;;;;;;;18.15;9.43;;;;;;;5.05;70.92;99448.91;4970024;28;106592;-73
2022/02/04 19:00:16;;;;;;;16.05;7.93;;;;;;;5.06;70.80;99444.47;4967848;28;107296;-72
2022/02/04 19:02:44;;;;;;;19.42;9.75;;;;;;;5.06;70.90;99444.47;4969059;28;106067;-77
2022/02/04 19:05:16;;;;;;;18.63;9.75;;;;;;;5.05;71.06;99443.63;4968887;28;106072;-77
2022/02/04 19:10:10;;;;;;;19.38;9.25;;;;;;;5.07;70.97;99444.31;4965010;28;105976;-75
2022/02/04 19:12:45;;;;;;;16.85;10.02;;;;;;;5.09;71.00;99437.06;4965695;28;106537;-72
2022/02/04 19:17:45;;;;;;;24.02;13.07;;;;;;;5.07;70.99;99428.47;4967520;28;106400;-72
2022/02/04 19:20:23;;;;;;;28.98;13.93;;;;;;;5.09;70.67;99418.56;4965747;28;106140;-73
2022/02/04 19:22:55;;;;;;;29.25;12.93;;;;;;;5.08;70.97;99429.28;4967286;28;106020;-72
2022/02/04 19:25:24;;;;;;;26.98;13.48;;;;;;;5.04;71.34;99425.31;4966962;28;106918;-75
2022/02/04 19:27:49;;;;;;;22.77;12.07;;;;;;;5.00;71.13;99423.94;4968014;28;106062;-77
2022/02/04 19:30:15;;;;;;;33.95;13.52;;;;;;;4.99;71.12;99419.66;4966915;28;106345;-72
2022/02/04 19:32:41;;;;;;;21.63;11.02;;;;;;;4.94;71.21;99422.75;4968511;28;106094;-76
2022/02/04 19:35:07;;;;;;;20.30;11.98;;;;;;;4.93;71.41;99413.16;4968402;28;106065;-77
2022/02/04 19:37:32;;;;;;;22.73;12.15;;;;;;;4.92;71.23;99416.78;4969304;28;106651;-73
2022/02/04 19:39:58;;;;;;;22.95;10.93;;;;;;;4.90;71.59;99422.22;4968432;28;106371;-77
2022/02/04 19:42:27;;;;;;;23.88;11.77;;;;;;;4.90;71.81;99416.94;4968365;28;106481;-77
2022/02/04 19:44:56;;;;;;;21.70;11.20;;;;;;;4.92;71.60;99406.22;4968232;28;106068;-79
2022/02/04 19:47:30;;;;;;;22.52;11.23;;;;;;;4.93;71.66;99402.59;4969181;28;106150;-75
2022/02/04 19:53:06;;;;;;;21.17;11.30;;;;;;;4.91;71.55;99389.56;4968451;28;106478;-75
2022/02/04 19:55:38;;;;;;;20.30;9.98;;;;;;;4.87;71.57;99400.59;4966549;28;106035;-75
2022/02/04 20:25:32;;;;;;;11.55;5.85;;;;;;;5.01;71.93;99368.34;4972350;28;105993;-75
2022/02/04 20:28:05;;;;;;;10.40;5.43;;;;;;;5.03;71.67;99386.69;4961635;28;125533;-76
2022/02/04 20:30:31;;;;;;;12.00;5.60;;;;;;;5.05;71.61;99374.16;4952296;28;106015;-74
2022/02/04 20:32:56;;;;;;;13.00;4.53;;;;;;;5.07;71.45;99373.03;4950305;28;106247;-74
2022/02/04 20:35:21;;;;;;;7.45;4.43;;;;;;;5.08;71.65;99379.13;4950080;28;106623;-74
2022/02/04 20:37:47;;;;;;;7.30;4.47;;;;;;;5.07;71.35;99377.47;4949791;28;106194;-76
2022/02/04 20:40:18;;;;;;;6.10;3.35;;;;;;;5.09;71.51;99381.59;4950536;28;105959;-75
2022/02/04 20:42:44;;;;;;;9.25;4.13;;;;;;;5.12;71.37;99374.38;4956273;28;106520;-76
2022/02/04 20:45:10;;;;;;;4.97;3.90;;;;;;;5.15;71.32;99363.50;4950835;28;106229;-74
2022/02/04 20:47:41;;;;;;;6.80;3.03;;;;;;;5.15;70.89;99352.94;4949841;28;105855;-76
2022/02/04 20:50:07;;;;;;;7.90;3.28;;;;;;;5.17;71.19;99353.63;4950774;28;105904;-73
2022/02/04 20:52:33;;;;;;;7.28;4.18;;;;;;;5.17;70.83;99357.09;4950048;28;106011;-75
2022/02/04 20:54:59;;;;;;;4.47;2.70;;;;;;;5.19;71.05;99346.38;4949336;28;106089;-74
2022/02/04 20:57:24;;;;;;;3.30;2.55;;;;;;;5.21;70.72;99352.31;4949692;28;106070;-76
2022/02/04 20:59:50;;;;;;;6.68;3.25;;;;;;;5.22;70.72;99348.69;4949779;28;106195;-77
2022/02/04 21:02:16;;;;;;;6.63;2.78;;;;;;;5.23;70.49;99360.91;4951338;28;106496;-80
2022/02/04 21:04:44;;;;;;;5.68;2.63;;;;;;;5.25;70.62;99348.38;4949956;28;106455;-79
2022/02/04 21:07:19;;;;;;;4.20;2.65;;;;;;;5.26;70.48;99355.31;4949578;28;105953;-76
2022/02/04 21:15:15;;;;;;;3.47;2.45;;;;;;;5.30;70.28;99343.44;4949544;28;106407;-74
2022/02/04 21:17:46;;;;;;;4.82;2.83;;;;;;;5.32;70.27;99338.03;4948774;28;105801;-73
2022/02/04 21:20:14;;;;;;;5.32;3.10;;;;;;;5.31;70.28;99339.81;4949979;28;106231;-73
2022/02/04 21:22:40;;;;;;;5.93;2.90;;;;;;;5.35;70.22;99346.44;4949082;28;106262;-77
2022/02/04 21:25:08;;;;;;;7.45;3.80;;;;;;;5.36;70.00;99336.72;4951771;28;106119;-74
2022/02/04 21:27:37;;;;;;;7.68;2.90;;;;;;;5.40;69.97;99325.69;4949534;28;106023;-74
2022/02/04 21:30:07;;;;;;;7.70;4.00;;;;;;;5.41;69.95;99303.56;4950062;28;106269;-74
2022/02/04 21:32:37;;;;;;;6.35;2.42;;;;;;;5.42;69.96;99312.31;4949911;28;106005;-77
2022/02/04 21:37:47;;;;;;;3.90;2.53;;;;;;;5.43;69.78;99313.97;4952873;28;105999;-77
2022/02/04 21:40:12;;;;;;;2.97;1.40;;;;;;;5.46;69.49;99320.75;4970170;28;105939;-74
2022/02/04 21:42:39;;;;;;;7.00;2.83;;;;;;;5.45;69.08;99309.34;4968751;28;106500;-72
2022/02/04 21:45:06;;;;;;;5.90;2.80;;;;;;;5.44;69.41;99315.63;4968600;28;105944;-74
2022/02/04 21:47:43;;;;;;;4.93;2.83;;;;;;;5.42;69.41;99305.19;4967988;28;105843;-76
2022/02/04 21:50:08;;;;;;;6.15;3.15;;;;;;;5.42;69.51;99294.63;4969676;28;105961;-75
2022/02/04 21:52:33;;;;;;;6.07;3.10;;;;;;;5.43;69.54;99296.31;4969054;28;106380;-80
2022/02/04 21:54:59;;;;;;;4.82;2.90;;;;;;;5.46;69.31;99278.50;4968572;28;106546;-73
2022/02/04 21:57:24;;;;;;;5.68;2.45;;;;;;;5.48;69.26;99280.00;4967761;28;122226;-72
2022/02/04 21:59:49;;;;;;;3.30;1.85;;;;;;;5.52;68.89;99278.69;4968289;28;106040;-75
2022/02/04 22:02:15;;;;;;;4.03;2.67;;;;;;;5.53;68.87;99272.38;4969053;28;105939;-74
2022/02/04 22:04:41;;;;;;;3.83;2.72;;;;;;;5.54;68.89;99263.47;4968041;28;117964;-73
2022/02/04 22:07:07;;;;;;;4.55;2.40;;;;;;;5.55;68.48;99259.88;4968028;28;106130;-73
2022/02/04 22:09:44;;;;;;;6.03;3.70;;;;;;;5.55;68.64;99248.44;4968228;28;105923;-74
2022/02/04 22:15:25;;;;;;;3.75;2.78;;;;;;;5.49;68.46;99264.97;4982075;28;106340;-76
2022/02/04 22:21:59;;;;;;;6.35;3.05;;;;;;;5.48;68.54;99269.44;4968245;28;105874;-73
2022/02/04 22:23:29;;;;;;;3.58;1.60;;;;;;;5.49;68.53;99272.88;4969378;28;105859;-73
2022/02/04 22:25:54;;;;;;;4.47;3.00;;;;;;;5.49;68.30;99251.75;4971891;28;106547;-75
2022/02/04 22:28:22;;;;;;;5.90;2.90;;;;;;;5.50;68.26;99256.06;4971565;28;106272;-77
2022/02/04 22:30:47;;;;;;;3.65;2.15;;;;;;;5.49;68.57;99251.75;4972112;28;106033;-73
2022/02/04 22:33:17;;;;;;;4.22;2.38;;;;;;;5.47;68.70;99256.34;4971525;28;106267;-73
2022/02/04 22:59:14;;;;;;;4.45;2.70;;;;;;;5.48;68.74;99250.09;4971114;28;106205;-74
2022/02/04 23:01:42;;;;;;;2.90;2.10;;;;;;;5.48;68.84;99231.59;4971821;28;105945;-74
2022/02/04 23:04:10;;;;;;;3.38;2.08;;;;;;;5.48;68.94;99231.59;4971159;28;106180;-74
2022/02/04 23:06:36;;;;;;;4.72;2.47;;;;;;;5.47;68.98;99233.41;4971105;28;106124;-77
2022/02/04 23:09:03;;;;;;;3.35;1.80;;;;;;;5.48;68.82;99231.59;4970837;28;107058;-74
2022/02/04 23:11:30;;;;;;;3.25;1.98;;;;;;;5.49;68.85;99239.34;4971678;28;106213;-72
